createdAt,value
2017-08-02T00:00:28.405Z,6.27
2017-08-02T00:02:56.661Z,7.23
2017-08-02T00:05:24.147Z,8.23
2017-08-02T00:07:52.398Z,6.47
2017-08-02T00:10:19.885Z,8.13
2017-08-02T00:12:47.430Z,7.33
2017-08-02T00:15:14.925Z,7.33
2017-08-02T00:17:42.414Z,7.43
2017-08-02T00:20:09.898Z,7.30
2017-08-02T00:22:37.374Z,6.57
2017-08-02T00:25:04.850Z,6.90
2017-08-02T00:27:32.353Z,6.97
2017-08-02T00:29:59.829Z,7.17
2017-08-02T00:32:27.676Z,6.47
2017-08-02T00:34:55.193Z,6.77
2017-08-02T00:37:22.711Z,7.77
2017-08-02T00:39:50.342Z,7.90
2017-08-02T00:42:17.858Z,7.57
2017-08-02T00:44:46.136Z,6.73
2017-08-02T00:47:14.576Z,8.53
2017-08-02T00:49:42.089Z,8.07
2017-08-02T00:52:09.583Z,7.27
2017-08-02T00:54:37.059Z,7.20
2017-08-02T00:57:04.623Z,8.17
2017-08-02T00:59:32.114Z,7.80
2017-08-02T01:01:59.599Z,7.00
2017-08-02T01:04:27.122Z,6.67
2017-08-02T01:06:54.598Z,7.27
2017-08-02T01:09:22.848Z,8.70
2017-08-02T01:14:10.534Z,6.90
2017-08-02T01:16:38.028Z,7.43
2017-08-02T01:19:05.533Z,7.17
2017-08-02T01:21:33.031Z,8.80
2017-08-02T01:24:00.513Z,7.67
2017-08-02T01:26:27.999Z,7.37
2017-08-02T01:28:55.506Z,7.57
2017-08-02T01:31:22.992Z,7.00
2017-08-02T01:33:50.521Z,7.90
2017-08-02T01:36:18.041Z,7.37
2017-08-02T01:38:46.291Z,6.40
2017-08-02T01:41:13.779Z,7.27
2017-08-02T01:43:41.274Z,7.00
2017-08-02T01:46:08.759Z,7.23
2017-08-02T01:48:36.250Z,8.20
2017-08-02T01:51:03.752Z,6.60
2017-08-02T01:53:31.236Z,7.73
2017-08-02T01:55:58.709Z,7.50
2017-08-02T01:58:26.219Z,8.20
2017-08-02T02:00:53.694Z,7.20
2017-08-02T02:03:21.178Z,7.83
2017-08-02T02:05:48.665Z,8.33
2017-08-02T02:08:16.146Z,8.00
2017-08-02T02:10:43.614Z,7.27
2017-08-02T02:13:11.116Z,7.57
2017-08-02T02:15:38.612Z,7.70
2017-08-02T02:18:06.094Z,7.87
2017-08-02T02:20:33.603Z,7.80
2017-08-02T02:23:01.086Z,6.73
2017-08-02T02:25:28.557Z,6.90
2017-08-02T02:27:56.046Z,6.70
2017-08-02T02:30:23.518Z,7.00
2017-08-02T02:32:51.014Z,7.97
2017-08-02T02:35:18.502Z,6.80
2017-08-02T02:37:45.973Z,8.00
2017-08-02T02:40:13.461Z,7.73
2017-08-02T02:42:40.954Z,8.07
2017-08-02T02:45:08.434Z,7.37
2017-08-02T02:47:35.905Z,7.17
2017-08-02T02:50:03.418Z,7.40
2017-08-02T02:52:30.931Z,7.70
2017-08-02T02:54:58.410Z,8.40
2017-08-02T02:57:25.907Z,7.37
2017-08-02T02:59:53.381Z,7.30
2017-08-02T03:02:20.853Z,8.20
2017-08-02T03:04:48.353Z,7.43
2017-08-02T03:07:15.829Z,7.00
2017-08-02T03:09:43.310Z,7.57
2017-08-02T03:12:11.591Z,7.60
2017-08-02T03:14:39.838Z,9.43
2017-08-02T03:17:07.340Z,8.27
2017-08-02T03:19:34.848Z,8.23
2017-08-02T03:22:02.334Z,7.30
2017-08-02T03:24:29.813Z,8.10
2017-08-02T03:26:57.296Z,7.57
2017-08-02T03:29:24.779Z,7.63
2017-08-02T03:31:52.250Z,7.17
2017-08-02T03:34:19.743Z,7.07
2017-08-02T03:36:47.236Z,8.40
2017-08-02T03:39:14.785Z,8.07
2017-08-02T03:41:42.283Z,8.10
2017-08-02T03:44:09.758Z,8.57
2017-08-02T03:46:38.007Z,8.57
2017-08-02T03:49:05.503Z,7.87
2017-08-02T03:51:33.771Z,8.27
2017-08-02T03:54:01.251Z,7.47
2017-08-02T03:56:28.741Z,7.63
2017-08-02T03:58:56.886Z,8.33
2017-08-02T04:01:24.701Z,8.27
2017-08-02T04:03:52.203Z,8.00
2017-08-02T04:06:20.456Z,8.23
2017-08-02T04:08:47.985Z,8.63
2017-08-02T04:11:15.710Z,6.67
2017-08-02T04:13:43.945Z,7.47
2017-08-02T04:16:11.422Z,7.13
2017-08-02T04:18:38.913Z,7.43
2017-08-02T04:21:06.420Z,7.80
2017-08-02T04:23:33.911Z,7.43
2017-08-02T04:26:01.401Z,7.20
2017-08-02T04:28:28.873Z,7.87
2017-08-02T04:30:56.392Z,7.83
2017-08-02T04:33:24.658Z,7.93
2017-08-02T04:35:52.902Z,7.10
2017-08-02T04:38:20.382Z,7.57
2017-08-02T04:40:47.882Z,7.40
2017-08-02T04:43:15.364Z,7.40
2017-08-02T04:45:42.855Z,7.77
2017-08-02T04:48:10.348Z,8.37
2017-08-02T04:50:38.594Z,6.07
2017-08-02T04:53:06.084Z,8.10
2017-08-02T04:55:33.584Z,8.07
2017-08-02T04:58:01.066Z,7.50
2017-08-02T05:00:28.546Z,7.27
2017-08-02T05:02:56.075Z,7.57
2017-08-02T05:05:23.565Z,7.97
2017-08-02T05:07:51.042Z,7.80
2017-08-02T05:10:18.539Z,8.23
2017-08-02T05:12:46.019Z,9.03
2017-08-02T05:15:13.507Z,8.53
2017-08-02T05:17:41.770Z,8.00
2017-08-02T05:20:09.251Z,9.30
2017-08-02T05:22:36.734Z,8.60
2017-08-02T05:25:04.309Z,8.70
2017-08-02T05:27:31.806Z,8.70
2017-08-02T05:29:59.292Z,9.10
2017-08-02T05:32:26.798Z,9.00
2017-08-02T05:34:54.274Z,8.33
2017-08-02T05:37:21.773Z,8.77
2017-08-02T05:39:49.279Z,10.67
2017-08-02T05:42:16.773Z,8.80
2017-08-02T05:44:44.250Z,8.80
2017-08-02T05:47:11.743Z,7.50
2017-08-02T05:49:40.170Z,7.97
2017-08-02T05:52:07.859Z,7.80
2017-08-02T05:54:36.219Z,9.00
2017-08-02T05:57:05.421Z,8.70
2017-08-02T05:59:33.675Z,6.90
2017-08-02T06:02:01.186Z,7.50
2017-08-02T06:04:28.658Z,9.57
2017-08-02T06:06:56.206Z,9.00
2017-08-02T06:09:23.985Z,8.70
2017-08-02T06:11:51.475Z,7.00
2017-08-02T06:14:18.959Z,8.77
2017-08-02T06:16:47.228Z,8.57
2017-08-02T06:19:16.375Z,10.17
2017-08-02T06:21:44.260Z,10.10
2017-08-02T06:24:11.826Z,12.73
2017-08-02T06:26:39.462Z,11.50
2017-08-02T06:29:07.058Z,10.33
2017-08-02T06:31:34.557Z,13.07
2017-08-02T06:34:02.036Z,12.83
2017-08-02T06:36:29.531Z,14.33
2017-08-02T06:38:57.152Z,14.37
2017-08-02T06:41:24.660Z,15.20
2017-08-02T06:43:52.159Z,15.30
2017-08-02T06:46:19.679Z,14.37
2017-08-02T06:48:47.163Z,13.73
2017-08-02T06:51:15.423Z,14.40
2017-08-02T06:53:42.917Z,12.70
2017-08-02T06:56:10.408Z,12.93
2017-08-02T06:58:37.979Z,14.40
2017-08-02T07:01:05.474Z,15.23
2017-08-02T07:03:34.224Z,14.77
2017-08-02T07:06:01.767Z,17.27
2017-08-02T07:08:29.285Z,14.60
2017-08-02T07:10:57.563Z,13.60
2017-08-02T07:13:25.902Z,16.83
2017-08-02T07:15:53.439Z,17.17
2017-08-02T07:18:21.074Z,18.77
2017-08-02T07:20:48.570Z,14.20
2017-08-02T07:23:16.121Z,14.53
2017-08-02T07:25:43.643Z,14.43
2017-08-02T07:28:11.903Z,15.90
2017-08-02T07:30:39.513Z,14.20
2017-08-02T07:33:06.997Z,13.60
2017-08-02T07:35:34.478Z,13.27
2017-08-02T07:38:01.965Z,12.30
2017-08-02T07:40:29.448Z,14.73
2017-08-02T07:42:56.926Z,14.50
2017-08-02T07:45:24.429Z,16.57
2017-08-02T07:47:52.697Z,13.17
2017-08-02T07:50:20.183Z,19.30
2017-08-02T07:52:47.691Z,14.53
2017-08-02T07:55:15.180Z,25.17
2017-08-02T07:57:43.440Z,21.77
2017-08-02T08:00:11.162Z,20.53
2017-08-02T08:02:38.643Z,22.23
2017-08-02T08:05:06.134Z,20.77
2017-08-02T08:07:34.422Z,22.90
2017-08-02T08:10:02.685Z,20.33
2017-08-02T08:12:31.171Z,22.60
2017-08-02T08:14:58.777Z,21.70
2017-08-02T08:17:26.454Z,23.70
2017-08-02T08:19:53.995Z,18.23
2017-08-02T08:22:21.504Z,19.50
2017-08-02T08:24:49.984Z,17.87
2017-08-02T08:27:18.082Z,17.23
2017-08-02T08:29:46.712Z,19.67
2017-08-02T08:32:14.503Z,19.20
2017-08-02T08:34:42.181Z,18.30
2017-08-02T08:37:09.692Z,22.80
2017-08-02T08:39:37.201Z,19.70
2017-08-02T08:42:05.602Z,20.17
2017-08-02T08:44:33.953Z,23.80
2017-08-02T08:47:01.573Z,22.00
2017-08-02T08:49:29.338Z,23.53
2017-08-02T08:51:56.838Z,19.70
2017-08-02T08:54:24.342Z,21.77
2017-08-02T08:56:51.830Z,19.23
2017-08-02T08:59:19.325Z,17.67
2017-08-02T09:01:46.824Z,20.80
2017-08-02T09:04:14.410Z,18.63
2017-08-02T09:06:41.925Z,19.67
2017-08-02T09:09:10.231Z,20.87
2017-08-02T09:11:37.715Z,25.10
2017-08-02T09:14:05.213Z,21.40
2017-08-02T09:16:33.776Z,18.00
2017-08-02T09:19:01.395Z,23.07
2017-08-02T09:21:28.888Z,22.27
2017-08-02T09:23:56.489Z,20.07
2017-08-02T09:26:24.954Z,21.00
2017-08-02T09:28:53.213Z,21.50
2017-08-02T09:31:20.702Z,26.80
2017-08-02T09:33:48.951Z,24.97
2017-08-02T09:36:16.469Z,22.70
2017-08-02T09:38:44.031Z,20.40
2017-08-02T09:41:11.516Z,17.13
2017-08-02T09:43:39.009Z,15.30
2017-08-02T09:46:07.262Z,16.70
2017-08-02T09:48:34.751Z,15.63
2017-08-02T09:51:03.025Z,13.30
2017-08-02T09:53:31.282Z,14.60
2017-08-02T09:55:58.766Z,13.70
2017-08-02T09:58:27.039Z,12.37
2017-08-02T10:00:55.282Z,12.17
2017-08-02T10:03:22.766Z,11.37
2017-08-02T10:05:51.037Z,11.23
2017-08-02T10:08:19.284Z,11.40
2017-08-02T10:10:46.791Z,11.37
2017-08-02T10:13:15.100Z,10.47
2017-08-02T10:15:42.588Z,11.10
2017-08-02T10:18:10.083Z,10.77
2017-08-02T10:20:38.362Z,10.73
2017-08-02T10:23:06.601Z,9.87
2017-08-02T10:25:34.086Z,9.20
2017-08-02T10:28:01.574Z,9.87
2017-08-02T10:30:29.062Z,9.97
2017-08-02T10:32:56.538Z,9.10
2017-08-02T10:35:24.028Z,9.90
2017-08-02T10:37:52.275Z,9.57
2017-08-02T10:40:19.765Z,9.27
2017-08-02T10:42:48.034Z,7.97
2017-08-02T10:45:16.299Z,8.60
2017-08-02T10:47:43.781Z,8.90
2017-08-02T10:50:12.037Z,8.30
2017-08-02T10:52:39.528Z,8.40
2017-08-02T10:55:07.010Z,9.10
2017-08-02T10:57:34.546Z,8.80
2017-08-02T11:00:02.035Z,7.43
2017-08-02T11:02:29.519Z,8.53
2017-08-02T11:04:57.005Z,8.90
2017-08-02T11:07:25.244Z,8.40
2017-08-02T11:09:52.731Z,7.97
2017-08-02T11:12:20.239Z,8.20
2017-08-02T11:14:47.721Z,8.57
2017-08-02T11:17:15.195Z,7.67
2017-08-02T11:19:42.691Z,8.20
2017-08-02T11:22:10.930Z,8.10
2017-08-02T11:24:38.422Z,10.40
2017-08-02T11:27:06.677Z,8.30
2017-08-02T11:29:34.169Z,8.00
2017-08-02T11:32:01.646Z,7.27
2017-08-02T11:34:29.146Z,8.00
2017-08-02T11:36:56.626Z,8.60
2017-08-02T11:39:24.866Z,8.43
2017-08-02T11:41:52.372Z,8.70
2017-08-02T11:44:20.629Z,8.60
2017-08-02T11:46:48.242Z,10.07
2017-08-02T11:49:15.752Z,8.40
2017-08-02T11:51:43.237Z,9.67
2017-08-02T11:54:10.736Z,9.30
2017-08-02T11:56:38.251Z,10.17
2017-08-02T11:59:05.730Z,9.20
2017-08-02T12:01:33.215Z,7.23
2017-08-02T12:04:00.713Z,8.57
2017-08-02T12:06:28.963Z,9.33
2017-08-02T12:08:56.446Z,8.17
2017-08-02T12:11:24.705Z,7.30
2017-08-02T12:13:52.183Z,7.70
2017-08-02T12:16:20.425Z,7.70
2017-08-02T12:18:47.920Z,8.10
2017-08-02T12:21:16.165Z,8.07
2017-08-02T12:23:43.649Z,8.60
2017-08-02T12:26:11.930Z,8.50
2017-08-02T12:28:40.188Z,8.27
2017-08-02T12:31:08.623Z,8.53
2017-08-02T12:33:36.128Z,8.27
2017-08-02T12:36:03.609Z,9.83
2017-08-02T12:38:31.862Z,9.60
2017-08-02T12:40:59.345Z,8.90
2017-08-02T12:43:27.603Z,8.53
2017-08-02T12:45:55.091Z,8.67
2017-08-02T12:48:23.350Z,9.10
2017-08-02T12:50:50.834Z,9.23
2017-08-02T12:53:18.315Z,8.10
2017-08-02T12:55:45.815Z,8.00
2017-08-02T12:58:13.289Z,9.10
2017-08-02T13:00:40.775Z,8.57
2017-08-02T13:03:08.278Z,8.70
2017-08-02T13:05:35.758Z,9.87
2017-08-02T13:08:03.250Z,8.23
2017-08-02T13:10:30.747Z,9.73
2017-08-02T13:12:58.237Z,9.10
2017-08-02T13:15:25.723Z,9.30
2017-08-02T13:17:53.222Z,8.60
2017-08-02T13:20:20.698Z,8.73
2017-08-02T13:22:48.173Z,9.20
2017-08-02T13:25:15.661Z,8.43
2017-08-02T13:27:43.158Z,8.20
2017-08-02T13:30:10.634Z,9.20
2017-08-02T13:32:38.130Z,8.50
2017-08-02T13:35:06.380Z,8.27
2017-08-02T13:37:33.869Z,8.43
2017-08-02T13:40:02.127Z,8.83
2017-08-02T13:42:30.368Z,8.40
2017-08-02T13:44:57.856Z,9.10
2017-08-02T13:47:25.352Z,9.47
2017-08-02T13:49:52.826Z,8.53
2017-08-02T13:52:20.305Z,8.60
2017-08-02T13:54:47.802Z,8.37
2017-08-02T13:57:16.058Z,8.27
2017-08-02T13:59:43.559Z,8.43
2017-08-02T14:02:11.062Z,7.47
2017-08-02T14:04:38.543Z,9.60
2017-08-02T14:07:06.023Z,9.30
2017-08-02T14:09:34.277Z,9.27
2017-08-02T14:12:01.758Z,9.43
2017-08-02T14:14:30.002Z,8.10
2017-08-02T14:16:57.499Z,9.10
2017-08-02T14:19:24.994Z,8.73
2017-08-02T14:21:52.482Z,9.20
2017-08-02T14:24:20.211Z,9.50
2017-08-02T14:26:47.694Z,9.10
2017-08-02T14:29:15.180Z,7.93
2017-08-02T14:31:42.687Z,8.63
2017-08-02T14:34:10.182Z,8.70
2017-08-02T14:36:37.706Z,9.53
2017-08-02T14:39:05.203Z,9.40
2017-08-02T14:41:32.685Z,8.47
2017-08-02T14:44:00.945Z,10.00
2017-08-02T14:46:28.441Z,10.13
2017-08-02T14:48:55.945Z,10.80
2017-08-02T14:51:23.418Z,8.97
2017-08-02T14:53:50.927Z,8.40
2017-08-02T14:56:18.408Z,11.60
2017-08-02T14:58:45.890Z,9.87
2017-08-02T15:01:13.381Z,9.77
2017-08-02T15:03:41.623Z,8.70
2017-08-02T15:06:09.111Z,8.63
2017-08-02T15:08:37.386Z,9.50
2017-08-02T15:11:05.639Z,8.87
2017-08-02T15:13:33.118Z,8.97
2017-08-02T15:16:01.385Z,9.00
2017-08-02T15:18:28.862Z,8.50
2017-08-02T15:20:57.108Z,9.93
2017-08-02T15:23:24.594Z,8.87
2017-08-02T15:25:52.836Z,8.10
2017-08-02T15:28:20.317Z,8.77
2017-08-02T15:30:47.805Z,8.10
2017-08-02T15:33:15.287Z,9.00
2017-08-02T15:35:42.765Z,9.67
2017-08-02T15:38:10.262Z,7.43
2017-08-02T15:40:38.523Z,9.57
2017-08-02T15:43:06.008Z,7.60
2017-08-02T15:45:34.271Z,8.50
2017-08-02T15:48:02.523Z,8.97
2017-08-02T15:50:30.007Z,8.33
2017-08-02T15:52:57.495Z,8.97
2017-08-02T15:55:24.969Z,8.53
2017-08-02T15:57:52.449Z,14.00
2017-08-02T16:00:19.951Z,10.53
2017-08-02T16:02:48.211Z,9.30
2017-08-02T16:05:15.691Z,15.17
2017-08-02T16:07:43.972Z,22.37
2017-08-02T16:10:11.464Z,11.23
2017-08-02T16:12:38.957Z,10.97
2017-08-02T16:15:06.479Z,10.40
2017-08-02T16:17:33.975Z,9.53
2017-08-02T16:20:01.463Z,8.57
2017-08-02T16:22:29.717Z,7.87
2017-08-02T16:24:57.192Z,8.70
2017-08-02T16:27:25.441Z,8.77
2017-08-02T16:29:52.959Z,8.90
2017-08-02T16:32:20.442Z,8.97
2017-08-02T16:34:47.936Z,8.67
2017-08-02T16:37:15.431Z,8.00
2017-08-02T16:39:42.911Z,9.67
2017-08-02T16:42:10.397Z,8.27
2017-08-02T16:44:37.899Z,7.87
2017-08-02T16:47:05.390Z,9.13
2017-08-02T16:49:32.885Z,8.47
2017-08-02T16:52:00.389Z,8.57
2017-08-02T16:54:27.957Z,8.80
2017-08-02T16:56:55.447Z,9.07
2017-08-02T16:59:22.951Z,8.60
2017-08-02T17:01:50.433Z,8.70
2017-08-02T17:04:17.914Z,9.27
2017-08-02T17:06:45.427Z,9.67
2017-08-02T17:09:13.014Z,9.10
2017-08-02T17:11:40.495Z,9.93
2017-08-02T17:14:08.003Z,9.40
2017-08-02T17:16:36.247Z,8.03
2017-08-02T17:19:03.734Z,15.87
2017-08-02T17:21:32.006Z,15.43
2017-08-02T17:24:00.254Z,12.40
2017-08-02T17:26:27.725Z,10.57
2017-08-02T17:28:55.223Z,8.73
2017-08-02T17:31:22.705Z,9.50
2017-08-02T17:33:50.193Z,9.27
2017-08-02T17:36:17.699Z,8.60
2017-08-02T17:38:45.190Z,10.23
2017-08-02T17:41:12.679Z,10.10
2017-08-02T17:43:40.173Z,8.87
2017-08-02T17:46:07.661Z,8.40
2017-08-02T17:48:35.150Z,8.13
2017-08-02T17:51:02.646Z,10.30
2017-08-02T17:53:30.137Z,9.37
2017-08-02T17:55:57.629Z,9.50
2017-08-02T17:58:25.122Z,9.00
2017-08-02T18:00:52.604Z,9.63
2017-08-02T18:03:20.103Z,9.50
2017-08-02T18:05:47.609Z,8.50
2017-08-02T18:08:15.089Z,9.20
2017-08-02T18:10:42.562Z,9.30
2017-08-02T18:13:10.075Z,8.57
2017-08-02T18:15:37.559Z,9.30
2017-08-02T18:18:05.044Z,9.30
2017-08-02T18:20:32.579Z,8.60
2017-08-02T18:23:00.074Z,8.93
2017-08-02T18:25:27.558Z,11.60
2017-08-02T18:27:56.081Z,10.23
2017-08-02T18:30:23.575Z,10.40
2017-08-02T18:32:51.066Z,10.13
2017-08-02T18:35:19.607Z,77.30
2017-08-02T18:37:47.107Z,119.67
2017-08-02T18:40:15.366Z,94.57
2017-08-02T18:42:42.873Z,48.43
2017-08-02T18:45:10.357Z,40.97
2017-08-02T18:47:37.843Z,64.80
2017-08-02T18:50:05.352Z,62.73
2017-08-02T18:52:32.934Z,85.90
2017-08-02T18:55:00.427Z,15.23
2017-08-02T18:57:28.730Z,22.20
2017-08-02T18:59:56.220Z,9.30
2017-08-02T19:02:23.699Z,9.23
2017-08-02T19:04:51.202Z,14.03
2017-08-02T19:07:18.687Z,10.83
2017-08-02T19:09:46.167Z,9.23
2017-08-02T19:12:13.676Z,8.83
2017-08-02T19:14:41.927Z,9.00
2017-08-02T19:17:09.546Z,10.10
2017-08-02T19:19:37.044Z,83.07
2017-08-02T19:22:04.524Z,12.83
2017-08-02T19:24:32.773Z,19.67
2017-08-02T19:27:00.282Z,18.00
2017-08-02T19:29:27.771Z,46.70
2017-08-02T19:31:55.262Z,16.53
2017-08-02T19:34:22.754Z,15.47
2017-08-02T19:36:50.246Z,31.00
2017-08-02T19:39:17.728Z,23.10
2017-08-02T19:41:45.353Z,28.40
2017-08-02T19:44:12.856Z,25.20
2017-08-02T19:46:40.347Z,19.80
2017-08-02T19:49:07.851Z,19.23
2017-08-02T19:51:35.329Z,11.60
2017-08-02T19:54:02.811Z,15.53
2017-08-02T19:56:31.095Z,12.20
2017-08-02T19:58:59.345Z,102.83
2017-08-02T20:01:26.842Z,36.23
2017-08-02T20:03:54.348Z,80.27
2017-08-02T20:06:21.821Z,27.03
2017-08-02T20:08:49.330Z,29.93
2017-08-02T20:11:16.844Z,20.03
2017-08-02T20:13:44.321Z,26.37
2017-08-02T20:16:12.574Z,13.70
2017-08-02T20:18:40.081Z,14.40
2017-08-02T20:21:07.576Z,11.67
2017-08-02T20:23:35.072Z,9.03
2017-08-02T20:26:03.339Z,17.77
2017-08-02T20:28:30.813Z,13.67
2017-08-02T20:30:59.071Z,13.63
2017-08-02T20:33:26.578Z,12.40
2017-08-02T20:35:54.053Z,15.10
2017-08-02T20:38:21.537Z,10.03
2017-08-02T20:40:49.040Z,14.63
2017-08-02T20:43:16.548Z,14.23
2017-08-02T20:45:44.034Z,12.43
2017-08-02T20:48:12.297Z,10.80
2017-08-02T20:50:39.815Z,9.77
2017-08-02T20:53:07.303Z,10.73
2017-08-02T20:55:34.834Z,161.77
2017-08-02T20:58:02.334Z,168.80
2017-08-02T21:00:29.823Z,39.40
2017-08-02T21:02:58.135Z,60.13
2017-08-02T21:05:25.625Z,113.67
2017-08-02T21:07:53.112Z,101.47
2017-08-02T21:10:21.385Z,18.23
2017-08-02T21:12:49.666Z,11.17
2017-08-02T21:15:17.929Z,10.93
2017-08-02T21:17:45.464Z,10.77
2017-08-02T21:20:12.959Z,11.50
2017-08-02T21:22:41.214Z,11.83
2017-08-02T21:25:08.724Z,11.03
2017-08-02T21:27:36.219Z,13.80
2017-08-02T21:30:03.721Z,15.37
2017-08-02T21:32:31.981Z,11.27
2017-08-02T21:34:59.457Z,12.57
2017-08-02T21:37:27.707Z,11.47
2017-08-02T21:39:55.208Z,11.10
2017-08-02T21:42:22.688Z,12.33
2017-08-02T21:44:50.170Z,11.83
2017-08-02T21:47:17.670Z,12.40
2017-08-02T21:49:45.158Z,23.43
2017-08-02T21:52:12.638Z,17.90
2017-08-02T21:54:40.133Z,10.97
2017-08-02T21:57:08.379Z,11.30
2017-08-02T21:59:35.870Z,18.53
2017-08-02T22:02:03.358Z,28.33
2017-08-02T22:04:30.846Z,22.43
2017-08-02T22:06:58.325Z,10.53
2017-08-02T22:09:25.847Z,10.90
2017-08-02T22:11:53.441Z,12.37
2017-08-02T22:14:20.927Z,11.20
2017-08-02T22:16:49.193Z,10.33
2017-08-02T22:19:16.677Z,12.30
2017-08-02T22:21:44.951Z,11.73
2017-08-02T22:24:13.218Z,16.10
2017-08-02T22:26:41.498Z,121.60
2017-08-02T22:29:09.775Z,81.20
2017-08-02T22:31:38.046Z,14.20
2017-08-02T22:34:06.329Z,25.37
2017-08-02T22:36:34.587Z,16.47
2017-08-02T22:39:02.092Z,12.73
2017-08-02T22:41:29.592Z,13.80
2017-08-02T22:43:57.075Z,16.00
2017-08-02T22:46:27.297Z,32.40
2017-08-02T22:48:54.976Z,25.53
2017-08-02T22:51:23.226Z,20.17
2017-08-02T22:53:50.722Z,22.37
2017-08-02T22:56:18.214Z,17.53
2017-08-02T22:58:45.703Z,10.93
2017-08-02T23:01:13.218Z,8.53
2017-08-02T23:03:40.703Z,9.80
2017-08-02T23:06:08.191Z,11.10
2017-08-02T23:08:36.464Z,9.13
2017-08-02T23:11:03.942Z,8.40
2017-08-02T23:13:32.186Z,9.57
2017-08-02T23:15:59.692Z,7.90
2017-08-02T23:18:27.183Z,6.90
2017-08-02T23:20:54.667Z,9.00
2017-08-02T23:23:22.158Z,10.33
2017-08-02T23:25:50.423Z,8.60
2017-08-02T23:28:18.675Z,8.07
2017-08-02T23:30:46.166Z,8.70
2017-08-02T23:33:14.421Z,7.50
2017-08-02T23:35:41.908Z,7.60
2017-08-02T23:38:10.170Z,6.70
2017-08-02T23:40:38.429Z,7.30
2017-08-02T23:43:05.905Z,7.80
2017-08-02T23:45:34.157Z,7.67
2017-08-02T23:48:01.639Z,6.77
2017-08-02T23:50:29.882Z,7.00
2017-08-02T23:52:57.375Z,6.70
2017-08-02T23:55:24.850Z,7.07
2017-08-02T23:57:53.097Z,7.00
